createdAt,value
2019-02-27T00:00:13.847Z,5.00
2019-02-27T00:02:45.355Z,5.00
2019-02-27T00:05:16.036Z,4.90
2019-02-27T00:07:46.131Z,4.90
2019-02-27T00:10:17.119Z,4.80
2019-02-27T00:12:46.998Z,4.80
2019-02-27T00:15:16.875Z,4.80
2019-02-27T00:17:51.095Z,4.80
2019-02-27T00:20:18.177Z,4.80
2019-02-27T00:22:50.627Z,4.70
2019-02-27T00:25:19.697Z,4.70
2019-02-27T00:27:49.977Z,4.70
2019-02-27T00:30:19.843Z,4.70
2019-02-27T00:32:51.297Z,4.70
2019-02-27T00:35:21.322Z,4.70
2019-02-27T00:37:55.175Z,4.70
2019-02-27T00:40:26.860Z,4.70
2019-02-27T00:42:56.601Z,4.70
2019-02-27T00:45:26.630Z,4.70
2019-02-27T00:48:15.562Z,4.60
2019-02-27T00:50:45.528Z,4.60
2019-02-27T00:53:15.302Z,4.60
2019-02-27T00:55:45.086Z,4.60
2019-02-27T00:58:14.813Z,4.60
2019-02-27T01:00:44.595Z,4.50
2019-02-27T01:03:14.287Z,4.50
2019-02-27T01:05:44.090Z,4.50
2019-02-27T01:08:13.955Z,4.40
2019-02-27T01:10:45.319Z,4.40
2019-02-27T01:13:15.481Z,4.50
2019-02-27T01:15:45.387Z,4.50
2019-02-27T01:18:16.366Z,4.50
2019-02-27T01:20:46.645Z,4.50
2019-02-27T01:23:17.548Z,4.50
2019-02-27T01:25:48.300Z,4.40
2019-02-27T01:28:20.701Z,4.50
2019-02-27T01:30:50.575Z,4.50
2019-02-27T01:33:20.412Z,4.50
2019-02-27T01:35:52.142Z,4.50
2019-02-27T01:38:21.518Z,4.50
2019-02-27T01:40:51.641Z,4.40
2019-02-27T01:43:21.939Z,4.50
2019-02-27T01:45:51.869Z,4.50
2019-02-27T01:48:23.821Z,4.50
2019-02-27T01:50:55.301Z,4.50
2019-02-27T01:53:24.992Z,4.50
2019-02-27T01:55:56.373Z,4.50
2019-02-27T01:58:26.329Z,4.50
2019-02-27T02:00:58.150Z,4.50
2019-02-27T02:03:28.142Z,4.50
2019-02-27T02:05:59.300Z,4.50
2019-02-27T02:08:29.677Z,4.50
2019-02-27T02:11:01.381Z,4.40
2019-02-27T02:13:58.923Z,4.40
2019-02-27T02:16:41.554Z,4.30
2019-02-27T02:19:22.585Z,4.30
2019-02-27T02:22:14.157Z,4.20
2019-02-27T02:25:30.558Z,4.20
2019-02-27T02:28:18.695Z,4.20
2019-02-27T02:31:14.446Z,4.10
2019-02-27T02:34:29.865Z,4.10
2019-02-27T02:37:27.856Z,4.00
2019-02-27T02:40:19.738Z,3.90
2019-02-27T02:43:41.968Z,3.80
2019-02-27T02:46:53.092Z,3.70
2019-02-27T02:50:04.945Z,3.60
2019-02-27T02:53:08.871Z,3.60
2019-02-27T02:55:52.901Z,3.70
2019-02-27T02:58:47.164Z,3.60
2019-02-27T03:01:38.118Z,3.60
2019-02-27T03:04:40.541Z,3.60
2019-02-27T03:07:56.599Z,3.60
2019-02-27T03:10:47.682Z,3.50
2019-02-27T03:13:41.633Z,3.50
2019-02-27T03:16:34.919Z,3.50
2019-02-27T03:19:18.444Z,3.40
2019-02-27T03:22:21.766Z,3.50
2019-02-27T03:25:22.922Z,3.50
2019-02-27T03:28:20.075Z,3.40
2019-02-27T03:31:24.154Z,3.50
2019-02-27T03:34:25.346Z,3.50
2019-02-27T03:37:36.165Z,3.60
2019-02-27T03:41:01.021Z,3.60
2019-02-27T03:43:45.654Z,3.60
2019-02-27T03:46:43.224Z,3.50
2019-02-27T03:49:28.115Z,3.50
2019-02-27T03:52:59.844Z,3.50
2019-02-27T03:56:12.881Z,3.40
2019-02-27T03:59:20.118Z,3.40
2019-02-27T04:02:29.915Z,3.30
2019-02-27T04:05:29.879Z,3.30
2019-02-27T04:08:43.504Z,3.20
2019-02-27T04:11:09.030Z,3.20
2019-02-27T04:13:38.846Z,3.20
2019-02-27T04:16:09.029Z,3.20
2019-02-27T04:18:37.395Z,3.20
2019-02-27T04:21:07.255Z,3.20
2019-02-27T04:23:37.551Z,3.10
2019-02-27T04:26:07.468Z,3.10
2019-02-27T04:28:38.134Z,3.10
2019-02-27T04:31:08.009Z,3.10
2019-02-27T04:33:37.722Z,3.10
2019-02-27T04:36:12.320Z,3.10
2019-02-27T04:38:38.998Z,3.10
2019-02-27T04:41:08.714Z,3.20
2019-02-27T04:43:38.580Z,3.10
2019-02-27T04:46:08.332Z,3.10
2019-02-27T04:48:38.282Z,3.10
2019-02-27T04:51:09.390Z,3.10
2019-02-27T04:53:40.687Z,3.10
2019-02-27T04:56:10.729Z,3.10
2019-02-27T04:58:42.765Z,3.10
2019-02-27T05:01:14.453Z,3.00
2019-02-27T05:03:44.267Z,3.00
2019-02-27T05:06:14.473Z,2.90
2019-02-27T05:08:44.972Z,2.90
2019-02-27T05:11:14.856Z,2.90
2019-02-27T05:13:45.311Z,2.80
2019-02-27T05:16:25.043Z,2.80
2019-02-27T05:18:54.858Z,2.80
2019-02-27T05:21:24.703Z,2.80
2019-02-27T05:23:54.458Z,2.80
2019-02-27T05:26:27.054Z,2.80
2019-02-27T05:28:55.714Z,2.80
2019-02-27T05:31:25.573Z,2.70
2019-02-27T05:33:55.431Z,2.70
2019-02-27T05:36:25.374Z,2.70
2019-02-27T05:38:55.213Z,2.70
2019-02-27T05:41:24.997Z,2.70
2019-02-27T05:43:54.902Z,2.60
2019-02-27T05:46:24.603Z,2.70
2019-02-27T05:48:54.346Z,2.70
2019-02-27T05:51:24.070Z,2.70
2019-02-27T05:53:56.171Z,2.70
2019-02-27T05:56:25.414Z,2.70
2019-02-27T05:58:57.503Z,2.70
2019-02-27T06:01:27.280Z,2.70
2019-02-27T06:03:58.767Z,2.70
2019-02-27T06:06:30.902Z,2.70
2019-02-27T06:09:00.642Z,2.70
2019-02-27T06:11:33.122Z,2.70
2019-02-27T06:14:03.121Z,2.70
2019-02-27T06:16:37.017Z,2.60
2019-02-27T06:19:04.464Z,2.60
2019-02-27T06:21:35.721Z,2.60
2019-02-27T06:24:11.610Z,2.50
2019-02-27T06:26:39.446Z,2.50
2019-02-27T06:29:09.570Z,2.50
2019-02-27T06:31:39.526Z,2.50
2019-02-27T06:34:09.296Z,2.50
2019-02-27T06:36:42.027Z,2.50
2019-02-27T06:39:10.588Z,2.40
2019-02-27T06:41:40.330Z,2.40
2019-02-27T06:44:11.038Z,2.40
2019-02-27T06:46:40.783Z,2.40
2019-02-27T06:49:10.511Z,2.40
2019-02-27T06:51:41.844Z,2.40
2019-02-27T06:54:11.569Z,2.50
2019-02-27T06:56:41.351Z,2.50
2019-02-27T06:59:11.471Z,2.50
2019-02-27T07:01:41.159Z,2.60
2019-02-27T07:04:10.879Z,2.80
2019-02-27T07:06:40.578Z,3.00
2019-02-27T07:09:11.628Z,3.10
2019-02-27T07:11:46.225Z,3.30
2019-02-27T07:14:14.930Z,3.40
2019-02-27T07:16:44.845Z,3.60
2019-02-27T07:19:15.849Z,3.70
2019-02-27T07:21:46.374Z,3.70
2019-02-27T07:24:16.109Z,3.70
2019-02-27T07:26:47.574Z,3.70
2019-02-27T07:29:22.094Z,3.80
2019-02-27T07:31:52.076Z,3.80
2019-02-27T07:34:22.481Z,3.80
2019-02-27T07:36:52.590Z,3.90
2019-02-27T07:39:22.531Z,3.90
2019-02-27T07:41:53.736Z,4.00
2019-02-27T07:44:23.487Z,4.10
2019-02-27T07:46:57.199Z,4.20
2019-02-27T07:49:25.273Z,4.30
2019-02-27T07:51:57.817Z,4.40
2019-02-27T07:54:29.140Z,4.50
2019-02-27T07:56:58.575Z,4.60
2019-02-27T07:59:28.367Z,4.70
2019-02-27T08:02:02.303Z,4.80
2019-02-27T08:04:31.039Z,4.90
2019-02-27T08:07:00.814Z,5.00
2019-02-27T08:09:35.879Z,5.20
2019-02-27T08:12:05.706Z,5.40
2019-02-27T08:14:37.892Z,5.60
2019-02-27T08:17:17.258Z,5.70
2019-02-27T08:19:38.747Z,5.90
2019-02-27T08:22:08.476Z,6.00
2019-02-27T08:24:38.276Z,6.20
2019-02-27T08:27:09.690Z,6.30
2019-02-27T08:29:39.572Z,6.40
2019-02-27T08:32:19.323Z,6.40
2019-02-27T08:34:49.045Z,6.50
2019-02-27T08:37:20.248Z,6.60
2019-02-27T08:39:50.180Z,6.80
2019-02-27T08:42:19.975Z,6.90
2019-02-27T08:44:49.890Z,7.10
2019-02-27T08:47:19.610Z,7.20
2019-02-27T08:49:49.366Z,7.30
2019-02-27T08:52:19.091Z,7.40
2019-02-27T08:54:48.921Z,7.60
2019-02-27T08:57:18.628Z,7.60
2019-02-27T08:59:48.404Z,7.80
2019-02-27T09:02:18.271Z,8.00
2019-02-27T09:04:48.134Z,8.20
2019-02-27T09:07:17.944Z,8.40
2019-02-27T09:09:51.148Z,8.50
2019-02-27T09:12:20.083Z,8.70
2019-02-27T09:14:49.872Z,8.80
2019-02-27T09:17:19.587Z,9.00
2019-02-27T09:19:49.306Z,9.20
2019-02-27T09:22:20.844Z,9.40
2019-02-27T09:24:50.657Z,9.60
2019-02-27T09:27:20.415Z,9.70
2019-02-27T09:29:52.329Z,9.90
2019-02-27T09:32:23.206Z,10.10
2019-02-27T09:34:53.279Z,10.20
2019-02-27T09:37:23.093Z,10.40
2019-02-27T09:39:53.880Z,10.60
2019-02-27T09:42:23.566Z,10.80
2019-02-27T09:44:53.410Z,10.90
2019-02-27T09:47:25.856Z,11.00
2019-02-27T09:49:54.706Z,11.20
2019-02-27T09:52:24.719Z,11.30
2019-02-27T09:54:54.915Z,11.50
2019-02-27T09:57:24.850Z,11.70
2019-02-27T09:59:54.617Z,11.90
2019-02-27T10:02:24.331Z,12.00
2019-02-27T10:04:54.114Z,12.10
2019-02-27T10:07:23.873Z,12.30
2019-02-27T10:09:53.804Z,12.30
2019-02-27T10:12:27.056Z,12.40
2019-02-27T10:14:55.134Z,12.50
2019-02-27T10:17:28.507Z,12.60
2019-02-27T10:20:01.433Z,12.70
2019-02-27T10:22:29.345Z,12.90
2019-02-27T10:24:59.060Z,13.10
2019-02-27T10:27:29.429Z,13.30
2019-02-27T10:29:59.395Z,13.50
2019-02-27T10:32:29.354Z,13.50
2019-02-27T10:34:59.077Z,13.70
2019-02-27T10:37:28.965Z,13.90
2019-02-27T10:39:59.190Z,14.00
2019-02-27T10:42:29.018Z,14.00
2019-02-27T10:44:58.811Z,14.00
2019-02-27T10:47:28.586Z,14.10
2019-02-27T10:50:01.691Z,14.20
2019-02-27T10:52:29.931Z,14.30
2019-02-27T10:54:59.719Z,14.40
2019-02-27T10:57:32.529Z,14.50
2019-02-27T11:00:01.375Z,14.60
2019-02-27T11:02:32.722Z,14.60
2019-02-27T11:05:04.112Z,14.70
2019-02-27T11:07:33.920Z,14.80
2019-02-27T11:10:04.368Z,14.80
2019-02-27T11:12:34.487Z,14.90
2019-02-27T11:15:05.355Z,14.90
2019-02-27T11:17:35.364Z,14.80
2019-02-27T11:20:05.246Z,14.90
2019-02-27T11:22:34.981Z,14.90
2019-02-27T11:25:05.157Z,14.90
2019-02-27T11:27:36.332Z,15.10
2019-02-27T11:30:08.684Z,15.10
2019-02-27T11:32:40.292Z,15.20
2019-02-27T11:35:10.179Z,15.20
2019-02-27T11:37:40.067Z,15.20
2019-02-27T11:40:12.131Z,15.30
2019-02-27T11:42:42.174Z,15.40
2019-02-27T11:45:12.744Z,15.40
2019-02-27T11:47:47.778Z,15.50
2019-02-27T11:50:17.843Z,15.60
2019-02-27T11:52:49.353Z,15.60
2019-02-27T11:55:19.589Z,15.60
2019-02-27T11:57:49.544Z,15.60
2019-02-27T12:00:23.472Z,15.70
2019-02-27T12:02:54.506Z,15.70
2019-02-27T12:05:30.275Z,15.80
2019-02-27T12:07:57.017Z,15.90
2019-02-27T12:10:27.222Z,15.90
2019-02-27T12:13:00.688Z,16.00
2019-02-27T12:15:28.612Z,16.10
2019-02-27T12:18:00.742Z,16.20
2019-02-27T12:20:30.102Z,16.40
2019-02-27T12:23:00.084Z,16.60
2019-02-27T12:25:30.309Z,16.70
2019-02-27T12:28:01.742Z,16.80
2019-02-27T12:30:31.659Z,16.70
2019-02-27T12:33:01.506Z,16.60
2019-02-27T12:35:32.523Z,16.60
2019-02-27T12:38:07.228Z,16.60
2019-02-27T12:40:34.104Z,16.50
2019-02-27T12:43:05.190Z,16.50
2019-02-27T12:45:35.159Z,16.50
2019-02-27T12:48:05.208Z,16.40
2019-02-27T12:50:35.129Z,16.40
2019-02-27T12:53:07.324Z,16.40
2019-02-27T12:55:37.066Z,16.30
2019-02-27T12:58:06.922Z,16.10
2019-02-27T13:00:37.063Z,16.00
2019-02-27T13:03:09.339Z,16.00
2019-02-27T13:05:38.548Z,15.80
2019-02-27T13:08:08.432Z,15.80
2019-02-27T13:10:38.259Z,15.70
2019-02-27T13:13:07.987Z,15.70
2019-02-27T13:15:40.590Z,15.70
2019-02-27T13:18:09.368Z,15.70
2019-02-27T13:20:39.898Z,15.70
2019-02-27T13:23:12.594Z,15.70
2019-02-27T13:25:42.395Z,15.80
2019-02-27T13:28:14.630Z,15.90
2019-02-27T13:30:44.365Z,16.00
2019-02-27T13:33:14.081Z,15.90
2019-02-27T13:35:46.083Z,15.90
2019-02-27T13:38:18.536Z,15.90
2019-02-27T13:40:47.371Z,15.90
2019-02-27T13:43:17.081Z,15.90
2019-02-27T13:45:47.583Z,16.00
2019-02-27T13:48:18.021Z,16.10
2019-02-27T13:50:47.844Z,16.20
2019-02-27T13:53:17.562Z,16.30
2019-02-27T13:55:48.117Z,16.40
2019-02-27T13:58:19.199Z,16.40
2019-02-27T14:00:48.975Z,16.40
2019-02-27T14:03:18.870Z,16.40
2019-02-27T14:05:49.926Z,16.50
2019-02-27T14:08:19.779Z,16.50
2019-02-27T14:10:50.526Z,16.50
2019-02-27T14:13:21.313Z,16.50
2019-02-27T14:15:51.487Z,16.50
2019-02-27T14:18:21.271Z,16.50
2019-02-27T14:20:52.858Z,16.50
2019-02-27T14:23:22.797Z,16.50
2019-02-27T14:25:53.699Z,16.50
2019-02-27T14:28:23.452Z,16.60
2019-02-27T14:30:53.686Z,16.60
2019-02-27T14:33:23.599Z,16.50
2019-02-27T14:35:53.353Z,16.50
2019-02-27T14:38:23.164Z,16.60
2019-02-27T14:40:53.036Z,16.60
2019-02-27T14:43:27.059Z,16.60
2019-02-27T14:45:54.246Z,16.60
2019-02-27T14:48:24.053Z,16.60
2019-02-27T14:50:53.810Z,16.60
2019-02-27T14:53:23.717Z,16.60
2019-02-27T14:55:53.507Z,16.70
2019-02-27T14:58:24.991Z,16.70
2019-02-27T15:00:54.848Z,16.60
2019-02-27T15:03:29.233Z,16.60
2019-02-27T15:05:56.938Z,16.40
2019-02-27T15:08:27.193Z,16.30
2019-02-27T15:10:56.979Z,16.30
2019-02-27T15:13:28.344Z,16.20
2019-02-27T15:15:58.331Z,16.20
2019-02-27T15:18:28.151Z,16.10
2019-02-27T15:20:57.896Z,16.00
2019-02-27T15:23:28.372Z,16.00
2019-02-27T15:25:59.281Z,15.90
2019-02-27T15:28:33.002Z,15.80
2019-02-27T15:31:00.444Z,15.80
2019-02-27T15:33:32.731Z,15.70
2019-02-27T15:36:02.510Z,15.70
2019-02-27T15:38:32.375Z,15.90
2019-02-27T15:41:03.311Z,16.00
2019-02-27T15:43:33.548Z,16.20
2019-02-27T15:46:03.495Z,16.20
2019-02-27T15:48:34.940Z,16.20
2019-02-27T15:51:04.826Z,16.10
2019-02-27T15:53:34.799Z,16.00
2019-02-27T15:56:05.408Z,15.80
2019-02-27T15:58:36.216Z,15.70
2019-02-27T16:01:07.770Z,15.50
2019-02-27T16:03:37.554Z,15.30
2019-02-27T16:06:07.410Z,15.10
2019-02-27T16:08:37.315Z,15.00
2019-02-27T16:11:07.222Z,15.00
2019-02-27T16:13:37.251Z,14.90
2019-02-27T16:16:07.156Z,14.80
2019-02-27T16:18:37.723Z,14.60
2019-02-27T16:21:07.695Z,14.60
2019-02-27T16:23:38.121Z,14.50
2019-02-27T16:26:08.502Z,14.30
2019-02-27T16:28:38.326Z,14.20
2019-02-27T16:31:12.530Z,14.20
2019-02-27T16:33:43.802Z,14.00
2019-02-27T16:36:15.760Z,13.80
2019-02-27T16:38:46.133Z,13.80
2019-02-27T16:41:16.406Z,13.60
2019-02-27T16:43:48.317Z,13.50
2019-02-27T16:46:18.717Z,13.40
2019-02-27T16:48:49.735Z,13.30
2019-02-27T16:51:19.534Z,13.20
2019-02-27T16:53:52.388Z,13.00
2019-02-27T16:56:20.876Z,12.90
2019-02-27T16:58:51.699Z,12.80
2019-02-27T17:01:22.595Z,12.60
2019-02-27T17:03:59.337Z,12.40
2019-02-27T17:06:25.403Z,12.30
2019-02-27T17:08:55.185Z,12.20
2019-02-27T17:11:24.992Z,12.00
2019-02-27T17:13:57.718Z,12.00
2019-02-27T17:16:27.291Z,11.90
2019-02-27T17:18:59.169Z,11.70
2019-02-27T17:21:28.487Z,11.60
2019-02-27T17:24:00.525Z,11.40
2019-02-27T17:26:30.870Z,11.30
2019-02-27T17:29:00.739Z,11.30
2019-02-27T17:31:31.740Z,11.20
2019-02-27T17:34:02.485Z,11.10
2019-02-27T17:36:32.661Z,11.00
2019-02-27T17:39:04.414Z,10.80
2019-02-27T17:41:35.794Z,10.70
2019-02-27T17:44:05.679Z,10.60
2019-02-27T17:46:35.467Z,10.50
2019-02-27T17:49:07.222Z,10.50
2019-02-27T17:51:39.553Z,10.40
2019-02-27T17:54:08.182Z,10.30
2019-02-27T17:56:37.951Z,10.20
2019-02-27T17:59:08.458Z,10.10
2019-02-27T18:01:39.318Z,10.00
2019-02-27T18:04:09.076Z,9.90
2019-02-27T18:06:39.014Z,9.80
2019-02-27T18:09:09.723Z,9.70
2019-02-27T18:11:39.606Z,9.70
2019-02-27T18:14:10.367Z,9.70
2019-02-27T18:16:41.198Z,9.60
2019-02-27T18:19:10.970Z,9.50
2019-02-27T18:21:41.090Z,9.40
2019-02-27T18:24:10.923Z,9.40
2019-02-27T18:26:40.826Z,9.30
2019-02-27T18:29:12.210Z,9.20
2019-02-27T18:31:42.239Z,9.10
2019-02-27T18:34:12.294Z,9.10
2019-02-27T18:36:45.798Z,9.00
2019-02-27T18:39:15.621Z,9.00
2019-02-27T18:41:45.851Z,8.90
2019-02-27T18:44:16.358Z,8.90
2019-02-27T18:46:46.507Z,8.80
2019-02-27T18:49:18.544Z,8.80
2019-02-27T18:51:47.814Z,8.70
2019-02-27T18:54:21.742Z,8.60
2019-02-27T18:56:50.211Z,8.60
2019-02-27T18:59:20.104Z,8.50
2019-02-27T19:01:49.892Z,8.50
2019-02-27T19:04:19.769Z,8.40
2019-02-27T19:06:49.530Z,8.30
2019-02-27T19:09:20.210Z,8.30
2019-02-27T19:11:50.876Z,8.20
2019-02-27T19:14:21.414Z,8.10
2019-02-27T19:16:52.184Z,8.00
2019-02-27T19:19:22.643Z,8.00
2019-02-27T19:21:53.242Z,8.00
2019-02-27T19:24:26.698Z,7.90
2019-02-27T19:26:54.610Z,7.80
2019-02-27T19:29:25.343Z,7.70
2019-02-27T19:31:55.146Z,7.70
2019-02-27T19:34:25.001Z,7.60
2019-02-27T19:36:54.993Z,7.60
2019-02-27T19:39:25.082Z,7.50
2019-02-27T19:41:54.802Z,7.50
2019-02-27T19:44:28.550Z,7.50
2019-02-27T19:46:56.802Z,7.40
2019-02-27T19:49:26.575Z,7.40
2019-02-27T19:51:56.276Z,7.30
2019-02-27T19:54:25.975Z,7.30
2019-02-27T19:56:55.846Z,7.20
2019-02-27T19:59:25.715Z,7.20
2019-02-27T20:01:55.731Z,7.20
2019-02-27T20:04:25.452Z,7.20
2019-02-27T20:06:55.166Z,7.20
2019-02-27T20:09:25.316Z,7.20
2019-02-27T20:11:55.227Z,7.20
2019-02-27T20:14:25.316Z,7.10
2019-02-27T20:16:55.960Z,7.00
2019-02-27T20:19:29.015Z,6.90
2019-02-27T20:21:58.615Z,6.80
2019-02-27T20:24:28.878Z,6.70
2019-02-27T20:26:58.730Z,6.70
2019-02-27T20:29:28.594Z,6.70
2019-02-27T20:31:58.482Z,6.70
2019-02-27T20:34:28.162Z,6.60
2019-02-27T20:36:58.016Z,6.50
2019-02-27T20:39:28.202Z,6.50
2019-02-27T20:41:58.114Z,6.50
2019-02-27T20:44:27.898Z,6.40
2019-02-27T20:46:57.623Z,6.30
2019-02-27T20:49:29.016Z,6.20
2019-02-27T20:51:59.811Z,6.10
2019-02-27T20:54:29.598Z,6.00
2019-02-27T20:56:59.412Z,5.80
2019-02-27T20:59:29.124Z,5.70
2019-02-27T21:01:59.048Z,5.50
2019-02-27T21:04:28.771Z,5.40
2019-02-27T21:06:58.541Z,5.40
2019-02-27T21:09:29.303Z,5.30
2019-02-27T21:12:03.478Z,5.20
2019-02-27T21:14:30.697Z,5.20
2019-02-27T21:17:00.400Z,5.20
2019-02-27T21:19:30.106Z,5.20
2019-02-27T21:22:00.070Z,5.10
2019-02-27T21:24:32.170Z,5.10
2019-02-27T21:27:02.062Z,5.10
2019-02-27T21:29:32.005Z,5.10
2019-02-27T21:32:02.370Z,5.20
2019-02-27T21:34:35.286Z,5.30
2019-02-27T21:37:07.221Z,5.40
2019-02-27T21:39:36.683Z,5.60
2019-02-27T21:42:06.398Z,5.80
2019-02-27T21:44:36.126Z,5.90
2019-02-27T21:47:05.934Z,5.80
2019-02-27T21:49:35.834Z,5.80
2019-02-27T21:52:05.741Z,5.90
2019-02-27T21:54:39.286Z,5.90
2019-02-27T21:57:08.378Z,6.00
2019-02-27T21:59:39.816Z,5.90
2019-02-27T22:02:09.809Z,6.00
2019-02-27T22:04:41.201Z,6.00
2019-02-27T22:07:11.035Z,5.90
2019-02-27T22:09:40.865Z,6.00
2019-02-27T22:12:10.649Z,6.00
2019-02-27T22:14:40.438Z,6.00
2019-02-27T22:17:10.158Z,6.00
2019-02-27T22:19:39.977Z,6.00
2019-02-27T22:22:10.002Z,6.00
2019-02-27T22:24:39.805Z,6.00
2019-02-27T22:27:12.836Z,6.00
2019-02-27T22:29:41.267Z,6.00
2019-02-27T22:32:12.036Z,6.00
2019-02-27T22:34:42.660Z,6.00
2019-02-27T22:37:12.370Z,6.00
2019-02-27T22:39:42.143Z,6.00
2019-02-27T22:42:14.523Z,6.00
2019-02-27T22:44:43.468Z,6.00
2019-02-27T22:47:13.298Z,6.00
2019-02-27T22:49:43.174Z,5.90
2019-02-27T22:52:12.909Z,5.90
2019-02-27T22:54:42.696Z,5.90
2019-02-27T22:57:12.670Z,5.90
2019-02-27T22:59:42.350Z,5.90
2019-02-27T23:02:12.296Z,5.80
2019-02-27T23:04:42.386Z,5.90
2019-02-27T23:07:12.342Z,5.80
2019-02-27T23:09:42.128Z,5.80
2019-02-27T23:12:12.071Z,5.80
2019-02-27T23:14:42.026Z,5.80
2019-02-27T23:17:19.154Z,5.80
2019-02-27T23:19:48.867Z,5.80
2019-02-27T23:22:18.706Z,5.80
2019-02-27T23:24:48.656Z,5.70
2019-02-27T23:27:18.438Z,5.70
2019-02-27T23:29:48.398Z,5.70
2019-02-27T23:32:18.279Z,5.70
2019-02-27T23:34:48.071Z,5.60
2019-02-27T23:37:17.861Z,5.60
2019-02-27T23:39:47.696Z,5.60
2019-02-27T23:42:17.593Z,5.70
2019-02-27T23:44:48.869Z,5.60
2019-02-27T23:47:19.881Z,5.60
2019-02-27T23:49:49.753Z,5.60
2019-02-27T23:52:22.399Z,5.60
2019-02-27T23:54:51.426Z,5.60
2019-02-27T23:57:23.657Z,5.50
2019-02-27T23:59:52.895Z,5.50
